Terminal Aerodrome Forecast
Issued by NWS Wakefield, VA

Home | Current Version | Previous Version | Text Only | Print | Product List | Glossary On
Versions: 1 2 3 4 5 6 7 8 9 10 11 12 13 14 15 16 17 18 19 20 21 22 23 24 25 26 27 28 29 30 31 32 33
236
FTUS41 KAKQ 062027 AAB
TAFORF
TAF AMD
KORF 062027Z 0620/0718 22005KT P6SM SCT025 BKN035
      TEMPO 0620/0623 5SM -RA BR BKN025
     FM070100 28005KT P6SM SCT020 OVC050
     FM070600 24003KT P6SM SCT008 BKN040
     FM071400 29007KT P6SM SCT050=

USA.gov is the U.S. government's official web portal to all federal, state and local government web resources and services.